Home

PKWA Terminal Aerodrome Forecast (TAF)small logo


TAF provided by NWS Guam
2014/07/29 06:54
TAF PKWA 290550Z 2906/3006 20011KT P6SM VCSH SCT016 BKN040 OVC080 
      TEMPO 2906/2910 3SM +SHRA BKN014 OVC030

      



Site Map | Contact Us | Copyright © 2007 Atmospheric Technology Services Company. All rights reserved.